createdAt,value
2023-05-02T00:00:04.172Z,95426.06
2023-05-02T00:02:34.719Z,95428.22
2023-05-02T00:05:02.973Z,95435.47
2023-05-02T00:07:30.971Z,95429.50
2023-05-02T00:09:59.408Z,95426.34
2023-05-02T00:12:27.546Z,95419.81
2023-05-02T00:14:57.929Z,95426.06
2023-05-02T00:17:27.554Z,95428.41
2023-05-02T00:19:57.627Z,95404.38
2023-05-02T00:22:26.128Z,95436.69
2023-05-02T00:24:58.047Z,95436.69
2023-05-02T00:27:26.722Z,95429.00
2023-05-02T00:29:55.264Z,95428.94
2023-05-02T00:32:23.699Z,95441.38
2023-05-02T00:34:51.628Z,95434.44
2023-05-02T00:37:21.740Z,95422.66
2023-05-02T00:39:49.934Z,95439.31
2023-05-02T00:42:18.240Z,95441.28
2023-05-02T00:44:47.181Z,95455.72
2023-05-02T00:47:16.925Z,95440.22
2023-05-02T00:49:44.949Z,95456.94
2023-05-02T00:52:12.953Z,95456.72
2023-05-02T00:54:43.341Z,95449.41
2023-05-02T00:57:12.154Z,95449.88
2023-05-02T00:59:44.282Z,95459.72
2023-05-02T01:02:25.302Z,95441.81
2023-05-02T01:05:01.511Z,95449.53
2023-05-02T01:07:47.633Z,95441.38
2023-05-02T01:10:24.974Z,95436.56
2023-05-02T01:13:01.403Z,95433.81
2023-05-02T01:15:30.081Z,95442.59
2023-05-02T01:18:01.893Z,95445.31
2023-05-02T01:20:32.483Z,95444.00
2023-05-02T01:23:06.105Z,95434.16
2023-05-02T01:25:55.890Z,95431.16
2023-05-02T01:28:35.223Z,95438.34
2023-05-02T01:31:07.520Z,95429.28
2023-05-02T01:33:37.228Z,95440.59
2023-05-02T01:36:07.458Z,95445.53
2023-05-02T01:38:37.513Z,95409.94
2023-05-02T01:41:07.746Z,95441.94
2023-05-02T01:43:38.160Z,95419.91
2023-05-02T01:46:11.637Z,95456.06
2023-05-02T01:48:42.188Z,95452.13
2023-05-02T01:51:11.230Z,95454.91
2023-05-02T01:53:41.549Z,95457.13
2023-05-02T01:56:11.717Z,95455.13
2023-05-02T01:58:41.728Z,95456.63
2023-05-02T02:01:12.881Z,95453.41
2023-05-02T02:03:40.971Z,95451.81
2023-05-02T02:06:10.396Z,95455.84
2023-05-02T02:08:39.153Z,95450.84
2023-05-02T02:11:13.321Z,95373.81
2023-05-02T02:13:49.027Z,95437.56
2023-05-02T02:16:25.740Z,95440.63
2023-05-02T02:18:56.410Z,95441.84
2023-05-02T02:21:27.013Z,95420.53
2023-05-02T02:23:59.352Z,95443.06
2023-05-02T02:26:30.080Z,95440.66
2023-05-02T02:28:58.507Z,95446.66
2023-05-02T02:31:33.073Z,95436.69
2023-05-02T02:34:01.916Z,95440.34
2023-05-02T02:36:35.635Z,95434.91
2023-05-02T02:39:14.716Z,95450.28
2023-05-02T02:41:50.053Z,95438.94
2023-05-02T02:44:29.529Z,95439.25
2023-05-02T02:47:07.957Z,95444.91
2023-05-02T02:49:48.940Z,95445.16
2023-05-02T02:52:26.312Z,95445.59
2023-05-02T02:55:02.126Z,95441.78
2023-05-02T02:57:38.604Z,95444.47
2023-05-02T03:00:13.213Z,95433.25
2023-05-02T03:02:45.160Z,95453.09
2023-05-02T03:05:13.411Z,95451.44
2023-05-02T03:07:42.654Z,95453.97
2023-05-02T03:10:12.004Z,95384.94
2023-05-02T03:12:41.570Z,95460.50
2023-05-02T03:15:24.579Z,95458.88
2023-05-02T03:17:55.075Z,95462.97
2023-05-02T03:20:23.628Z,95466.19
2023-05-02T03:22:52.516Z,95477.75
2023-05-02T03:25:20.897Z,95477.91
2023-05-02T03:27:49.574Z,95473.13
2023-05-02T03:30:17.809Z,95491.88
2023-05-02T03:32:46.024Z,95487.81
2023-05-02T03:35:16.466Z,95497.31
2023-05-02T03:37:44.523Z,95495.47
2023-05-02T03:40:13.329Z,95486.81
2023-05-02T03:42:44.220Z,95486.56
2023-05-02T03:45:13.176Z,95440.81
2023-05-02T03:47:41.676Z,95431.13
2023-05-02T03:50:10.236Z,95493.53
2023-05-02T03:52:40.105Z,95487.09
2023-05-02T03:55:09.249Z,95481.28
2023-05-02T03:57:37.676Z,95491.66
2023-05-02T04:00:06.675Z,95497.75
2023-05-02T04:02:34.972Z,95492.34
2023-05-02T04:05:05.354Z,95494.44
2023-05-02T04:07:33.459Z,95482.56
2023-05-02T04:10:03.673Z,95483.06
2023-05-02T04:12:32.153Z,95492.31
2023-05-02T04:15:00.415Z,95492.47
2023-05-02T04:17:28.639Z,95501.66
2023-05-02T04:19:57.155Z,95490.38
2023-05-02T04:22:26.888Z,95490.63
2023-05-02T04:24:55.477Z,95494.69
2023-05-02T04:27:26.303Z,95498.88
2023-05-02T04:29:55.341Z,95490.88
2023-05-02T04:32:24.474Z,95491.28
2023-05-02T04:34:54.858Z,95486.69
2023-05-02T04:37:22.962Z,95497.53
2023-05-02T04:39:51.287Z,95506.47
2023-05-02T04:42:19.360Z,95500.91
2023-05-02T04:44:50.356Z,95503.25
2023-05-02T04:47:18.686Z,95511.00
2023-05-02T04:49:46.724Z,95493.81
2023-05-02T04:52:15.174Z,95456.81
2023-05-02T04:54:43.333Z,95511.56
2023-05-02T04:57:11.364Z,95498.06
2023-05-02T04:59:40.061Z,95503.50
2023-05-02T05:02:12.999Z,95507.16
2023-05-02T05:04:43.957Z,95493.63
2023-05-02T05:07:12.149Z,95502.84
2023-05-02T05:09:40.248Z,95516.28
2023-05-02T05:12:08.401Z,95506.41
2023-05-02T05:14:36.333Z,95497.53
2023-05-02T05:17:05.991Z,95497.66
2023-05-02T05:19:35.645Z,95505.16
2023-05-02T05:22:03.767Z,95508.38
2023-05-02T05:24:32.126Z,95504.63
2023-05-02T05:27:01.458Z,95508.97
2023-05-02T05:29:29.433Z,95505.34
2023-05-02T05:31:58.143Z,95512.16
2023-05-02T05:34:27.047Z,95503.69
2023-05-02T05:36:56.947Z,95504.88
2023-05-02T05:39:25.728Z,95516.41
2023-05-02T05:41:54.732Z,95508.47
2023-05-02T05:44:23.021Z,95509.53
2023-05-02T05:46:51.320Z,95513.16
2023-05-02T05:49:19.507Z,95512.91
2023-05-02T05:51:47.734Z,95517.06
2023-05-02T05:54:18.309Z,95515.75
2023-05-02T05:56:46.897Z,95519.75
2023-05-02T05:59:16.508Z,95515.25
2023-05-02T06:01:44.552Z,95522.81
2023-05-02T06:04:13.899Z,95525.78
2023-05-02T06:06:42.854Z,95527.88
2023-05-02T06:09:12.392Z,95513.81
2023-05-02T06:11:41.963Z,95514.56
2023-05-02T06:14:10.484Z,95543.00
2023-05-02T06:16:38.691Z,95515.31
2023-05-02T06:19:07.159Z,95518.84
2023-05-02T06:21:37.364Z,95522.09
2023-05-02T06:24:06.005Z,95524.47
2023-05-02T06:26:34.107Z,95524.22
2023-05-02T06:29:04.155Z,95518.91
2023-05-02T06:31:32.186Z,95515.13
2023-05-02T06:34:00.211Z,95504.94
2023-05-02T06:36:29.258Z,95516.91
2023-05-02T06:38:57.199Z,95517.09
2023-05-02T06:41:25.443Z,95522.09
2023-05-02T06:43:53.448Z,95522.22
2023-05-02T06:46:23.576Z,95519.50
2023-05-02T06:48:51.931Z,95479.31
2023-05-02T06:51:21.303Z,95516.41
2023-05-02T06:53:49.732Z,95511.84
2023-05-02T06:56:18.174Z,95496.25
2023-05-02T06:58:46.325Z,95473.28
2023-05-02T07:01:14.339Z,95411.91
2023-05-02T07:03:43.920Z,95508.84
2023-05-02T07:06:12.441Z,95507.63
2023-05-02T07:08:40.467Z,95501.88
2023-05-02T07:11:09.666Z,95494.34
2023-05-02T07:13:37.573Z,95504.66
2023-05-02T07:16:28.720Z,95511.41
2023-05-02T07:18:58.156Z,95508.28
2023-05-02T07:21:26.805Z,95520.56
2023-05-02T07:23:57.626Z,95512.69
2023-05-02T07:26:27.642Z,95512.25
2023-05-02T07:28:56.288Z,95505.19
2023-05-02T07:31:24.875Z,95504.94
2023-05-02T07:33:53.038Z,95520.56
2023-05-02T07:36:22.681Z,95514.69
2023-05-02T07:38:50.892Z,95503.22
2023-05-02T07:41:19.381Z,95504.09
2023-05-02T07:43:47.712Z,95486.38
2023-05-02T07:46:15.703Z,95515.56
2023-05-02T07:48:44.618Z,95521.50
2023-05-02T07:51:13.626Z,95519.22
2023-05-02T07:53:43.119Z,95518.34
2023-05-02T07:56:13.307Z,95527.28
2023-05-02T07:58:41.369Z,95530.94
2023-05-02T08:01:09.582Z,95517.72
2023-05-02T08:03:37.831Z,95462.06
2023-05-02T08:06:06.225Z,95513.44
2023-05-02T08:08:35.740Z,95504.81
2023-05-02T08:11:05.906Z,95513.13
2023-05-02T08:13:34.054Z,95519.34
2023-05-02T08:16:03.493Z,95527.72
2023-05-02T08:18:34.177Z,95513.03
2023-05-02T08:21:02.088Z,95508.09
2023-05-02T08:23:30.239Z,95508.31
2023-05-02T08:25:58.503Z,95515.28
2023-05-02T08:28:28.720Z,95516.94
2023-05-02T08:30:57.100Z,95505.72
2023-05-02T08:33:25.328Z,95513.97
2023-05-02T08:35:53.496Z,95512.03
2023-05-02T08:38:21.442Z,95520.91
2023-05-02T08:40:49.876Z,95520.59
2023-05-02T08:43:18.264Z,95521.38
2023-05-02T08:45:49.106Z,95508.72
2023-05-02T08:48:19.408Z,95482.72
2023-05-02T08:50:49.857Z,95519.69
2023-05-02T08:53:19.526Z,95522.50
2023-05-02T08:55:50.252Z,95511.56
2023-05-02T08:58:18.183Z,95519.78
2023-05-02T09:00:51.620Z,95517.00
2023-05-02T09:03:28.198Z,95508.25
2023-05-02T09:06:09.552Z,95513.13
2023-05-02T09:08:38.766Z,95498.41
2023-05-02T09:11:10.673Z,95506.88
2023-05-02T09:13:42.929Z,95504.88
2023-05-02T09:16:13.905Z,95507.28
2023-05-02T09:18:44.172Z,95490.28
2023-05-02T09:21:13.961Z,95499.53
2023-05-02T09:23:43.737Z,95465.13
2023-05-02T09:26:16.256Z,95497.72
2023-05-02T09:28:48.179Z,95500.25
2023-05-02T09:31:37.502Z,95504.34
2023-05-02T09:34:11.207Z,95485.78
2023-05-02T09:36:43.745Z,95491.25
2023-05-02T09:39:13.881Z,95488.94
2023-05-02T09:41:42.932Z,95476.41
2023-05-02T09:44:12.809Z,95489.84
2023-05-02T09:46:47.359Z,95480.09
2023-05-02T09:49:19.078Z,95483.34
2023-05-02T09:51:48.800Z,95477.16
2023-05-02T09:54:36.146Z,95476.88
2023-05-02T09:57:07.496Z,95476.91
2023-05-02T09:59:35.714Z,95462.94
2023-05-02T10:02:07.765Z,95438.16
2023-05-02T10:04:37.320Z,95412.97
2023-05-02T10:07:07.025Z,95468.69
2023-05-02T10:09:37.509Z,95455.41
2023-05-02T10:12:08.358Z,95466.41
2023-05-02T10:14:42.765Z,95459.44
2023-05-02T10:17:15.268Z,95466.91
2023-05-02T10:19:53.179Z,95449.94
2023-05-02T10:22:22.224Z,95458.16
2023-05-02T10:24:51.819Z,95453.13
2023-05-02T10:27:20.948Z,95454.31
2023-05-02T10:29:50.169Z,95425.34
2023-05-02T10:32:20.118Z,95434.78
2023-05-02T10:34:50.663Z,95339.41
2023-05-02T10:37:20.762Z,95434.00
2023-05-02T10:39:48.973Z,95434.97
2023-05-02T10:42:18.674Z,95420.53
2023-05-02T10:44:49.877Z,95430.06
2023-05-02T10:47:23.610Z,95426.31
2023-05-02T10:49:53.558Z,95431.28
2023-05-02T10:52:29.283Z,95426.16
2023-05-02T10:55:24.416Z,95432.34
2023-05-02T10:58:22.578Z,95420.09
2023-05-02T11:00:54.211Z,95421.31
2023-05-02T11:03:58.690Z,95425.56
2023-05-02T11:06:28.425Z,95406.59
2023-05-02T11:09:35.381Z,95398.31
2023-05-02T11:12:04.950Z,95415.28
2023-05-02T11:14:50.254Z,95405.63
2023-05-02T11:17:19.303Z,95342.09
2023-05-02T11:20:29.767Z,95418.41
2023-05-02T11:23:27.134Z,95404.16
2023-05-02T11:25:57.481Z,95404.34
2023-05-02T11:28:42.805Z,95406.41
2023-05-02T11:31:32.860Z,95409.63
2023-05-02T11:34:02.156Z,95408.97
2023-05-02T11:36:30.978Z,95400.63
2023-05-02T11:39:01.329Z,95418.66
2023-05-02T11:41:40.887Z,95319.91
2023-05-02T11:44:09.085Z,95394.84
2023-05-02T11:46:38.497Z,95397.44
2023-05-02T11:49:09.789Z,95392.44
2023-05-02T11:51:39.203Z,95382.81
2023-05-02T11:54:09.221Z,95389.81
2023-05-02T11:56:37.331Z,95375.94
2023-05-02T11:59:06.645Z,95375.13
2023-05-02T12:01:35.381Z,95382.97
2023-05-02T12:04:05.709Z,95368.28
2023-05-02T12:06:35.473Z,95365.97
2023-05-02T12:09:17.295Z,95364.38
2023-05-02T12:11:46.416Z,95364.47
2023-05-02T12:14:14.692Z,95365.31
2023-05-02T12:16:43.577Z,95336.75
2023-05-02T12:19:16.620Z,95361.78
2023-05-02T12:21:44.733Z,95345.47
2023-05-02T12:24:16.628Z,95360.28
2023-05-02T12:26:46.437Z,95362.34
2023-05-02T12:29:17.211Z,95348.69
2023-05-02T12:31:52.826Z,95344.00
2023-05-02T12:34:35.306Z,95342.47
2023-05-02T12:37:04.704Z,95270.28
2023-05-02T12:39:38.438Z,95324.41
2023-05-02T12:42:13.724Z,95318.91
2023-05-02T12:44:43.693Z,95324.25
2023-05-02T12:47:13.279Z,95246.19
2023-05-02T12:49:53.070Z,95320.75
2023-05-02T12:52:24.548Z,95306.72
2023-05-02T12:54:54.783Z,95320.06
2023-05-02T12:57:25.370Z,95331.31
2023-05-02T12:59:54.816Z,95325.63
2023-05-02T13:02:24.065Z,95316.69
2023-05-02T13:04:52.504Z,95322.63
2023-05-02T13:07:21.055Z,95313.91
2023-05-02T13:09:50.776Z,95317.53
2023-05-02T13:12:20.145Z,95313.94
2023-05-02T13:14:48.614Z,95321.06
2023-05-02T13:17:17.063Z,95322.81
2023-05-02T13:19:57.780Z,95315.94
2023-05-02T13:22:29.850Z,95334.09
2023-05-02T13:24:59.747Z,95332.06
2023-05-02T13:27:29.185Z,95324.50
2023-05-02T13:29:57.527Z,95317.25
2023-05-02T13:32:25.933Z,95313.94
2023-05-02T13:34:54.165Z,95315.22
2023-05-02T13:37:22.387Z,95312.69
2023-05-02T13:39:50.270Z,95326.00
2023-05-02T13:42:18.691Z,95320.75
2023-05-02T13:44:48.620Z,95316.47
2023-05-02T13:47:16.616Z,95319.25
2023-05-02T13:49:45.321Z,95293.31
2023-05-02T13:52:13.852Z,95310.09
2023-05-02T13:54:42.069Z,95323.13
2023-05-02T13:57:10.970Z,95304.13
2023-05-02T13:59:39.009Z,95312.97
2023-05-02T14:02:08.908Z,95237.47
2023-05-02T14:04:37.420Z,95317.06
2023-05-02T14:07:05.579Z,95307.13
2023-05-02T14:09:35.293Z,95312.09
2023-05-02T14:12:03.286Z,95299.59
2023-05-02T14:14:31.850Z,95313.78
2023-05-02T14:17:00.225Z,95312.72
2023-05-02T14:19:29.681Z,95305.47
2023-05-02T14:21:57.879Z,95307.03
2023-05-02T14:24:26.092Z,95305.81
2023-05-02T14:26:54.050Z,95320.16
2023-05-02T14:29:22.147Z,95302.03
2023-05-02T14:31:51.067Z,95303.63
2023-05-02T14:34:19.665Z,95308.78
2023-05-02T14:36:49.242Z,95299.22
2023-05-02T14:39:17.425Z,95293.69
2023-05-02T14:41:46.691Z,95294.38
2023-05-02T14:44:15.726Z,95299.03
2023-05-02T14:46:43.966Z,95315.75
2023-05-02T14:49:12.250Z,95296.84
2023-05-02T14:51:40.359Z,95298.00
2023-05-02T14:54:09.806Z,95306.66
2023-05-02T14:56:38.235Z,95295.94
2023-05-02T14:59:06.452Z,95314.66
2023-05-02T15:01:34.735Z,95303.16
2023-05-02T15:04:06.619Z,95320.06
2023-05-02T15:06:36.736Z,95316.38
2023-05-02T15:09:05.369Z,95296.00
2023-05-02T15:11:37.128Z,95305.19
2023-05-02T15:14:05.559Z,95307.56
2023-05-02T15:16:33.764Z,95300.88
2023-05-02T15:19:01.722Z,95301.25
2023-05-02T15:21:31.297Z,95308.88
2023-05-02T15:23:59.634Z,95302.34
2023-05-02T15:26:27.678Z,95316.41
2023-05-02T15:28:57.725Z,95315.34
2023-05-02T15:31:26.391Z,95293.06
2023-05-02T15:33:54.429Z,95297.16
2023-05-02T15:36:22.626Z,95293.81
2023-05-02T15:38:50.864Z,95296.72
2023-05-02T15:41:18.943Z,95303.72
2023-05-02T15:43:47.191Z,95303.50
2023-05-02T15:46:17.276Z,95304.72
2023-05-02T15:48:46.976Z,95280.69
2023-05-02T15:51:15.290Z,95265.69
2023-05-02T15:53:45.144Z,95295.50
2023-05-02T15:56:13.789Z,95289.34
2023-05-02T15:58:42.011Z,95295.84
2023-05-02T16:01:10.335Z,95292.50
2023-05-02T16:03:40.397Z,95293.38
2023-05-02T16:06:08.972Z,95276.59
2023-05-02T16:08:37.326Z,95301.34
2023-05-02T16:11:05.724Z,95291.38
2023-05-02T16:13:33.999Z,95305.41
2023-05-02T16:16:02.023Z,95290.16
2023-05-02T16:18:30.095Z,95304.63
2023-05-02T16:21:00.948Z,95300.84
2023-05-02T16:23:30.660Z,95309.84
2023-05-02T16:25:59.581Z,95259.53
2023-05-02T16:28:27.521Z,95304.06
2023-05-02T16:30:56.343Z,95311.84
2023-05-02T16:33:25.354Z,95324.06
2023-05-02T16:36:03.138Z,95303.34
2023-05-02T16:38:31.810Z,95302.63
2023-05-02T16:40:59.801Z,95240.50
2023-05-02T16:43:27.957Z,95323.09
2023-05-02T16:46:01.606Z,95327.09
2023-05-02T16:48:30.952Z,95334.56
2023-05-02T16:51:01.666Z,95336.59
2023-05-02T16:53:33.120Z,95324.09
2023-05-02T16:56:01.118Z,95339.56
2023-05-02T16:58:30.024Z,95345.56
2023-05-02T17:01:02.884Z,95341.06
2023-05-02T17:03:30.904Z,95351.53
2023-05-02T17:06:04.275Z,95352.03
2023-05-02T17:08:34.284Z,95351.03
2023-05-02T17:11:02.686Z,95312.56
2023-05-02T17:13:31.807Z,95366.50
2023-05-02T17:16:01.049Z,95363.97
2023-05-02T17:18:29.567Z,95356.94
2023-05-02T17:20:57.700Z,95289.19
2023-05-02T17:23:30.616Z,95364.31
2023-05-02T17:26:00.320Z,95341.72
2023-05-02T17:28:28.329Z,95358.75
2023-05-02T17:30:59.491Z,95371.09
2023-05-02T17:33:30.265Z,95360.66
2023-05-02T17:35:59.101Z,95363.66
2023-05-02T17:38:27.790Z,95367.63
2023-05-02T17:40:55.795Z,95380.63
2023-05-02T17:43:25.604Z,95381.16
2023-05-02T17:45:53.762Z,95371.25
2023-05-02T17:48:21.846Z,95379.09
2023-05-02T17:50:51.153Z,95380.13
2023-05-02T17:53:19.212Z,95384.47
2023-05-02T17:55:47.336Z,95387.91
2023-05-02T17:58:15.999Z,95373.59
2023-05-02T18:00:45.756Z,95379.28
2023-05-02T18:03:13.819Z,95378.97
2023-05-02T18:05:44.144Z,95384.06
2023-05-02T18:08:12.133Z,95377.22
2023-05-02T18:10:41.626Z,95368.97
2023-05-02T18:13:10.210Z,95378.88
2023-05-02T18:15:38.380Z,95390.19
2023-05-02T18:18:08.226Z,95386.63
2023-05-02T18:20:40.729Z,95368.38
2023-05-02T18:23:09.114Z,95387.09
2023-05-02T18:25:37.394Z,95378.69
2023-05-02T18:28:06.806Z,95361.53
2023-05-02T18:30:38.703Z,95379.00
2023-05-02T18:33:09.665Z,95368.53
2023-05-02T18:35:37.740Z,95367.06
2023-05-02T18:38:07.867Z,95369.53
2023-05-02T18:40:36.185Z,95371.53
2023-05-02T18:43:04.169Z,95288.63
2023-05-02T18:45:37.293Z,95382.16
2023-05-02T18:48:05.598Z,95373.19
2023-05-02T18:50:35.041Z,95379.13
2023-05-02T18:53:03.222Z,95380.63
2023-05-02T18:55:33.523Z,95366.97
2023-05-02T18:58:01.645Z,95367.47
2023-05-02T19:00:31.448Z,95376.69
2023-05-02T19:02:59.910Z,95369.38
2023-05-02T19:05:29.135Z,95387.13
2023-05-02T19:07:58.918Z,95384.59
2023-05-02T19:10:27.449Z,95344.69
2023-05-02T19:12:55.511Z,95374.75
2023-05-02T19:15:26.678Z,95379.63
2023-05-02T19:17:55.106Z,95381.59
2023-05-02T19:20:23.778Z,95371.88
2023-05-02T19:23:02.910Z,95370.41
2023-05-02T19:25:42.828Z,95376.94
2023-05-02T19:28:12.359Z,95378.19
2023-05-02T19:30:46.610Z,95378.94
2023-05-02T19:33:15.186Z,95384.84
2023-05-02T19:35:43.263Z,95388.34
2023-05-02T19:38:11.288Z,95377.31
2023-05-02T19:40:40.143Z,95397.72
2023-05-02T19:43:12.920Z,95397.53
2023-05-02T19:45:41.012Z,95383.41
2023-05-02T19:48:08.902Z,95399.19
2023-05-02T19:50:37.921Z,95407.69
2023-05-02T19:53:06.044Z,95398.75
2023-05-02T19:55:34.051Z,95399.50
2023-05-02T19:58:03.390Z,95404.78
2023-05-02T20:00:33.099Z,95389.78
2023-05-02T20:03:01.896Z,95395.81
2023-05-02T20:05:30.785Z,95409.59
2023-05-02T20:07:59.083Z,95408.72
2023-05-02T20:10:27.064Z,95414.84
2023-05-02T20:12:55.358Z,95412.22
2023-05-02T20:15:23.672Z,95408.94
2023-05-02T20:17:53.047Z,95409.78
2023-05-02T20:20:21.759Z,95415.22
2023-05-02T20:22:49.976Z,95418.00
2023-05-02T20:25:18.931Z,95391.56
2023-05-02T20:27:47.196Z,95421.94
2023-05-02T20:30:17.374Z,95407.72
2023-05-02T20:32:45.742Z,95425.75
2023-05-02T20:35:16.082Z,95427.69
2023-05-02T20:37:44.355Z,95419.25
2023-05-02T20:40:13.464Z,95432.16
2023-05-02T20:42:42.623Z,95420.59
2023-05-02T20:45:14.247Z,95423.03
2023-05-02T20:47:44.252Z,95418.53
2023-05-02T20:50:12.601Z,95427.81
2023-05-02T20:52:44.503Z,95424.09
2023-05-02T20:55:12.676Z,95433.31
2023-05-02T20:57:40.797Z,95434.88
2023-05-02T21:00:11.544Z,95444.84
2023-05-02T21:02:39.716Z,95434.53
2023-05-02T21:05:08.289Z,95267.19
2023-05-02T21:07:36.518Z,95426.38
2023-05-02T21:10:07.341Z,95441.97
2023-05-02T21:12:38.932Z,95435.50
2023-05-02T21:15:09.506Z,95437.63
2023-05-02T21:17:40.900Z,95438.72
2023-05-02T21:20:11.228Z,95449.41
2023-05-02T21:22:39.466Z,95445.22
2023-05-02T21:25:10.613Z,95428.66
2023-05-02T21:27:38.845Z,95447.13
2023-05-02T21:30:09.641Z,95454.41
2023-05-02T21:32:37.775Z,95325.59
2023-05-02T21:35:06.520Z,95442.34
2023-05-02T21:37:34.867Z,95432.41
2023-05-02T21:40:04.362Z,95451.69
2023-05-02T21:42:34.400Z,95447.59
2023-05-02T21:45:02.570Z,95455.16
2023-05-02T21:47:30.610Z,95428.94
2023-05-02T21:49:58.830Z,95453.22
2023-05-02T21:52:27.475Z,95457.38
2023-05-02T21:54:55.686Z,95452.09
2023-05-02T21:57:23.647Z,95453.28
2023-05-02T21:59:53.254Z,95428.50
2023-05-02T22:02:21.316Z,95463.06
2023-05-02T22:04:51.058Z,95445.28
2023-05-02T22:07:19.041Z,95448.63
2023-05-02T22:09:47.397Z,95449.16
2023-05-02T22:12:15.509Z,95449.97
2023-05-02T22:14:45.913Z,95463.91
2023-05-02T22:17:18.787Z,95455.84
2023-05-02T22:19:49.638Z,95467.94
2023-05-02T22:22:18.123Z,95466.91
2023-05-02T22:24:46.435Z,95450.66
2023-05-02T22:27:14.459Z,95465.47
2023-05-02T22:29:43.393Z,95472.28
2023-05-02T22:32:13.768Z,95475.31
2023-05-02T22:34:43.420Z,95484.81
2023-05-02T22:37:12.460Z,95463.41
2023-05-02T22:39:40.764Z,95477.44
2023-05-02T22:42:09.358Z,95478.94
2023-05-02T22:44:50.890Z,95469.75
2023-05-02T22:47:23.646Z,95485.16
2023-05-02T22:49:54.520Z,95478.94
2023-05-02T22:52:22.671Z,95481.97
2023-05-02T22:54:50.661Z,95481.22
2023-05-02T22:57:20.081Z,95483.19
2023-05-02T22:59:48.274Z,95476.09
2023-05-02T23:02:17.613Z,95481.97
2023-05-02T23:04:45.678Z,95461.31
2023-05-02T23:07:15.206Z,95473.53
2023-05-02T23:09:43.239Z,95450.16
2023-05-02T23:12:11.665Z,95474.13
2023-05-02T23:14:42.651Z,95449.56
2023-05-02T23:17:11.866Z,95482.44
2023-05-02T23:19:40.463Z,95461.94
2023-05-02T23:22:08.431Z,95466.16
2023-05-02T23:24:37.929Z,95470.69
2023-05-02T23:27:08.290Z,95465.56
2023-05-02T23:29:36.941Z,95476.44
2023-05-02T23:32:08.198Z,95468.59
2023-05-02T23:34:37.495Z,95464.22
2023-05-02T23:37:07.006Z,95462.41
2023-05-02T23:39:35.671Z,95407.28
2023-05-02T23:42:07.052Z,95451.38
2023-05-02T23:44:35.181Z,95444.31
2023-05-02T23:47:03.219Z,95442.94
2023-05-02T23:49:31.290Z,95437.00
2023-05-02T23:51:59.699Z,95419.97
2023-05-02T23:54:31.321Z,95434.75
2023-05-02T23:57:03.510Z,95432.66
2023-05-02T23:59:33.509Z,95427.41
